sensor_id;sensor_type;location;lat;lon;timestamp;P1;durP1;ratioP1;P2;durP2;ratioP2
21168;SDS011;10742;51.816;8.662;2023-06-24T00:01:31;1999.90;;;705.07;;
21168;SDS011;10742;51.816;8.662;2023-06-24T00:04:35;1999.90;;;646.00;;
21168;SDS011;10742;51.816;8.662;2023-06-24T00:07:37;1999.90;;;644.37;;
21168;SDS011;10742;51.816;8.662;2023-06-24T00:10:46;1999.90;;;641.37;;
21168;SDS011;10742;51.816;8.662;2023-06-24T00:13:48;1999.90;;;742.40;;
21168;SDS011;10742;51.816;8.662;2023-06-24T00:16:50;1999.90;;;724.63;;
21168;SDS011;10742;51.816;8.662;2023-06-24T00:19:54;1999.90;;;771.67;;
21168;SDS011;10742;51.816;8.662;2023-06-24T00:22:56;1999.90;;;706.03;;
21168;SDS011;10742;51.816;8.662;2023-06-24T00:25:58;1999.90;;;705.63;;
21168;SDS011;10742;51.816;8.662;2023-06-24T00:29:01;1999.90;;;746.17;;
21168;SDS011;10742;51.816;8.662;2023-06-24T00:32:03;1999.90;;;738.73;;
21168;SDS011;10742;51.816;8.662;2023-06-24T00:35:06;1999.90;;;770.30;;
21168;SDS011;10742;51.816;8.662;2023-06-24T00:38:09;1999.90;;;749.27;;
21168;SDS011;10742;51.816;8.662;2023-06-24T00:41:11;1999.90;;;764.47;;
21168;SDS011;10742;51.816;8.662;2023-06-24T00:44:14;1999.90;;;772.53;;
21168;SDS011;10742;51.816;8.662;2023-06-24T00:47:17;1999.90;;;758.13;;
21168;SDS011;10742;51.816;8.662;2023-06-24T00:50:20;1999.90;;;761.80;;
21168;SDS011;10742;51.816;8.662;2023-06-24T00:53:22;1999.90;;;725.97;;
21168;SDS011;10742;51.816;8.662;2023-06-24T00:56:35;1999.90;;;769.13;;
21168;SDS011;10742;51.816;8.662;2023-06-24T00:59:44;1999.90;;;813.83;;
21168;SDS011;10742;51.816;8.662;2023-06-24T01:02:49;1999.90;;;758.60;;
21168;SDS011;10742;51.816;8.662;2023-06-24T01:05:52;1999.90;;;804.27;;
21168;SDS011;10742;51.816;8.662;2023-06-24T01:08:59;1999.90;;;799.33;;
21168;SDS011;10742;51.816;8.662;2023-06-24T01:12:02;1999.90;;;782.17;;
21168;SDS011;10742;51.816;8.662;2023-06-24T01:15:08;1999.90;;;810.60;;
21168;SDS011;10742;51.816;8.662;2023-06-24T01:21:40;1999.90;;;765.60;;
21168;SDS011;10742;51.816;8.662;2023-06-24T01:24:55;1999.90;;;775.57;;
21168;SDS011;10742;51.816;8.662;2023-06-24T01:28:20;1999.90;;;779.80;;
21168;SDS011;10742;51.816;8.662;2023-06-24T01:31:45;1999.90;;;764.87;;
21168;SDS011;10742;51.816;8.662;2023-06-24T01:35:02;1999.90;;;759.17;;
21168;SDS011;10742;51.816;8.662;2023-06-24T01:38:17;1999.90;;;708.37;;
21168;SDS011;10742;51.816;8.662;2023-06-24T01:41:24;1999.90;;;666.97;;
21168;SDS011;10742;51.816;8.662;2023-06-24T01:44:32;1999.90;;;767.53;;
21168;SDS011;10742;51.816;8.662;2023-06-24T01:47:36;1999.90;;;739.03;;
21168;SDS011;10742;51.816;8.662;2023-06-24T01:50:45;1999.90;;;667.73;;
21168;SDS011;10742;51.816;8.662;2023-06-24T01:53:57;1999.90;;;698.43;;
21168;SDS011;10742;51.816;8.662;2023-06-24T01:57:03;1999.90;;;632.30;;
21168;SDS011;10742;51.816;8.662;2023-06-24T02:00:08;1999.90;;;558.10;;
21168;SDS011;10742;51.816;8.662;2023-06-24T02:03:24;1999.90;;;603.97;;
21168;SDS011;10742;51.816;8.662;2023-06-24T02:06:29;1948.00;;;515.47;;
21168;SDS011;10742;51.816;8.662;2023-06-24T02:09:33;1828.63;;;471.40;;
21168;SDS011;10742;51.816;8.662;2023-06-24T02:12:36;1785.80;;;469.80;;
21168;SDS011;10742;51.816;8.662;2023-06-24T02:15:40;1485.90;;;419.90;;
21168;SDS011;10742;51.816;8.662;2023-06-24T02:18:43;1691.40;;;434.60;;
21168;SDS011;10742;51.816;8.662;2023-06-24T02:21:46;1130.63;;;331.93;;
21168;SDS011;10742;51.816;8.662;2023-06-24T02:24:49;1619.90;;;409.70;;
21168;SDS011;10742;51.816;8.662;2023-06-24T02:27:52;1517.57;;;411.37;;
21168;SDS011;10742;51.816;8.662;2023-06-24T02:30:56;1492.63;;;398.90;;
21168;SDS011;10742;51.816;8.662;2023-06-24T02:34:00;1689.10;;;425.90;;
21168;SDS011;10742;51.816;8.662;2023-06-24T02:37:02;1341.80;;;339.10;;
21168;SDS011;10742;51.816;8.662;2023-06-24T02:40:07;1759.40;;;432.03;;
21168;SDS011;10742;51.816;8.662;2023-06-24T02:43:10;1999.90;;;524.27;;
21168;SDS011;10742;51.816;8.662;2023-06-24T02:46:14;1198.73;;;350.60;;
21168;SDS011;10742;51.816;8.662;2023-06-24T02:49:17;1265.90;;;358.57;;
21168;SDS011;10742;51.816;8.662;2023-06-24T02:52:21;1545.97;;;400.70;;
21168;SDS011;10742;51.816;8.662;2023-06-24T02:55:23;1445.30;;;385.57;;
21168;SDS011;10742;51.816;8.662;2023-06-24T02:58:35;1445.97;;;381.63;;
21168;SDS011;10742;51.816;8.662;2023-06-24T03:01:43;1746.80;;;424.53;;
21168;SDS011;10742;51.816;8.662;2023-06-24T03:04:48;1732.50;;;444.67;;
21168;SDS011;10742;51.816;8.662;2023-06-24T03:07:52;1651.07;;;415.03;;
21168;SDS011;10742;51.816;8.662;2023-06-24T03:10:56;1224.80;;;341.10;;
21168;SDS011;10742;51.816;8.662;2023-06-24T03:14:03;1666.17;;;416.73;;
21168;SDS011;10742;51.816;8.662;2023-06-24T03:17:10;1917.50;;;480.87;;
21168;SDS011;10742;51.816;8.662;2023-06-24T03:20:13;1004.03;;;304.87;;
21168;SDS011;10742;51.816;8.662;2023-06-24T03:23:16;874.17;;;271.37;;
21168;SDS011;10742;51.816;8.662;2023-06-24T03:26:18;1003.03;;;298.67;;
21168;SDS011;10742;51.816;8.662;2023-06-24T03:29:21;1118.27;;;322.47;;
21168;SDS011;10742;51.816;8.662;2023-06-24T03:32:35;796.30;;;259.03;;
21168;SDS011;10742;51.816;8.662;2023-06-24T03:35:39;678.60;;;224.63;;
21168;SDS011;10742;51.816;8.662;2023-06-24T03:38:45;715.20;;;244.03;;
21168;SDS011;10742;51.816;8.662;2023-06-24T03:41:47;517.93;;;171.97;;
21168;SDS011;10742;51.816;8.662;2023-06-24T03:44:50;478.33;;;160.33;;
21168;SDS011;10742;51.816;8.662;2023-06-24T03:47:53;543.53;;;176.37;;
21168;SDS011;10742;51.816;8.662;2023-06-24T03:50:55;368.00;;;131.63;;
21168;SDS011;10742;51.816;8.662;2023-06-24T03:53:57;578.80;;;181.10;;
21168;SDS011;10742;51.816;8.662;2023-06-24T03:57:00;831.03;;;255.20;;
21168;SDS011;10742;51.816;8.662;2023-06-24T04:00:03;854.70;;;260.97;;
21168;SDS011;10742;51.816;8.662;2023-06-24T04:03:19;761.13;;;235.30;;
21168;SDS011;10742;51.816;8.662;2023-06-24T04:06:22;936.60;;;270.40;;
21168;SDS011;10742;51.816;8.662;2023-06-24T04:09:24;1458.00;;;382.17;;
21168;SDS011;10742;51.816;8.662;2023-06-24T04:12:27;1903.77;;;468.13;;
21168;SDS011;10742;51.816;8.662;2023-06-24T04:15:29;1927.37;;;490.00;;
21168;SDS011;10742;51.816;8.662;2023-06-24T04:18:32;1999.90;;;647.93;;
21168;SDS011;10742;51.816;8.662;2023-06-24T04:21:34;1999.90;;;692.57;;
21168;SDS011;10742;51.816;8.662;2023-06-24T04:24:36;1999.90;;;759.43;;
21168;SDS011;10742;51.816;8.662;2023-06-24T04:27:39;1999.90;;;725.30;;
21168;SDS011;10742;51.816;8.662;2023-06-24T04:30:42;1999.90;;;720.50;;
21168;SDS011;10742;51.816;8.662;2023-06-24T04:33:45;1999.90;;;748.93;;
21168;SDS011;10742;51.816;8.662;2023-06-24T04:36:47;1999.90;;;746.83;;
21168;SDS011;10742;51.816;8.662;2023-06-24T04:39:50;1999.90;;;865.40;;
21168;SDS011;10742;51.816;8.662;2023-06-24T04:42:52;1999.90;;;912.10;;
21168;SDS011;10742;51.816;8.662;2023-06-24T04:45:54;1999.90;;;725.47;;
21168;SDS011;10742;51.816;8.662;2023-06-24T04:48:57;1999.90;;;663.80;;
21168;SDS011;10742;51.816;8.662;2023-06-24T04:52:00;1999.90;;;594.47;;
21168;SDS011;10742;51.816;8.662;2023-06-24T04:55:03;1934.03;;;484.97;;
21168;SDS011;10742;51.816;8.662;2023-06-24T04:58:05;1952.57;;;498.03;;
21168;SDS011;10742;51.816;8.662;2023-06-24T05:01:08;1122.27;;;316.63;;
21168;SDS011;10742;51.816;8.662;2023-06-24T05:04:10;621.53;;;206.67;;
21168;SDS011;10742;51.816;8.662;2023-06-24T05:07:12;906.43;;;258.30;;
21168;SDS011;10742;51.816;8.662;2023-06-24T05:10:15;362.20;;;131.50;;
21168;SDS011;10742;51.816;8.662;2023-06-24T05:13:17;285.10;;;104.70;;
21168;SDS011;10742;51.816;8.662;2023-06-24T05:16:19;258.43;;;97.60;;
21168;SDS011;10742;51.816;8.662;2023-06-24T05:19:22;94.33;;;40.27;;
21168;SDS011;10742;51.816;8.662;2023-06-24T05:22:24;61.00;;;23.13;;
21168;SDS011;10742;51.816;8.662;2023-06-24T05:25:26;48.57;;;19.13;;
21168;SDS011;10742;51.816;8.662;2023-06-24T05:28:29;32.70;;;18.27;;
21168;SDS011;10742;51.816;8.662;2023-06-24T05:31:31;22.53;;;10.70;;
21168;SDS011;10742;51.816;8.662;2023-06-24T05:34:33;26.97;;;12.80;;
21168;SDS011;10742;51.816;8.662;2023-06-24T05:37:36;17.13;;;8.57;;
21168;SDS011;10742;51.816;8.662;2023-06-24T05:40:39;12.20;;;7.13;;
21168;SDS011;10742;51.816;8.662;2023-06-24T05:43:45;12.07;;;6.67;;
21168;SDS011;10742;51.816;8.662;2023-06-24T05:46:47;15.07;;;5.78;;
21168;SDS011;10742;51.816;8.662;2023-06-24T05:49:50;9.38;;;6.07;;
21168;SDS011;10742;51.816;8.662;2023-06-24T05:52:52;11.30;;;6.30;;
21168;SDS011;10742;51.816;8.662;2023-06-24T05:55:55;9.80;;;5.75;;
21168;SDS011;10742;51.816;8.662;2023-06-24T05:58:57;9.90;;;5.55;;
21168;SDS011;10742;51.816;8.662;2023-06-24T06:01:59;11.23;;;6.10;;
21168;SDS011;10742;51.816;8.662;2023-06-24T06:05:03;8.63;;;5.40;;
21168;SDS011;10742;51.816;8.662;2023-06-24T06:08:05;16.50;;;6.28;;
21168;SDS011;10742;51.816;8.662;2023-06-24T06:11:08;11.70;;;5.97;;
21168;SDS011;10742;51.816;8.662;2023-06-24T06:14:10;10.15;;;5.75;;
21168;SDS011;10742;51.816;8.662;2023-06-24T06:17:13;10.10;;;5.88;;
21168;SDS011;10742;51.816;8.662;2023-06-24T06:20:16;13.27;;;5.80;;
21168;SDS011;10742;51.816;8.662;2023-06-24T06:23:18;11.27;;;6.25;;
21168;SDS011;10742;51.816;8.662;2023-06-24T06:26:21;10.73;;;5.90;;
21168;SDS011;10742;51.816;8.662;2023-06-24T06:29:23;11.27;;;6.05;;
21168;SDS011;10742;51.816;8.662;2023-06-24T06:32:26;14.20;;;6.20;;
21168;SDS011;10742;51.816;8.662;2023-06-24T06:35:28;12.52;;;6.10;;
21168;SDS011;10742;51.816;8.662;2023-06-24T06:38:32;15.25;;;5.90;;
21168;SDS011;10742;51.816;8.662;2023-06-24T06:41:34;13.05;;;5.68;;
21168;SDS011;10742;51.816;8.662;2023-06-24T06:44:37;12.18;;;5.70;;
21168;SDS011;10742;51.816;8.662;2023-06-24T06:47:39;12.95;;;5.85;;
21168;SDS011;10742;51.816;8.662;2023-06-24T06:50:42;9.73;;;5.63;;
21168;SDS011;10742;51.816;8.662;2023-06-24T06:53:44;9.57;;;5.68;;
21168;SDS011;10742;51.816;8.662;2023-06-24T06:56:46;10.60;;;5.35;;
21168;SDS011;10742;51.816;8.662;2023-06-24T06:59:49;14.48;;;5.80;;
21168;SDS011;10742;51.816;8.662;2023-06-24T07:02:54;10.65;;;5.70;;
21168;SDS011;10742;51.816;8.662;2023-06-24T07:05:56;12.52;;;6.10;;
21168;SDS011;10742;51.816;8.662;2023-06-24T07:08:58;11.43;;;5.43;;
21168;SDS011;10742;51.816;8.662;2023-06-24T07:12:01;10.40;;;5.43;;
21168;SDS011;10742;51.816;8.662;2023-06-24T07:15:04;10.68;;;5.63;;
21168;SDS011;10742;51.816;8.662;2023-06-24T07:18:06;10.38;;;6.05;;
21168;SDS011;10742;51.816;8.662;2023-06-24T07:21:09;9.00;;;5.25;;
21168;SDS011;10742;51.816;8.662;2023-06-24T07:24:11;11.18;;;5.80;;
21168;SDS011;10742;51.816;8.662;2023-06-24T07:27:13;9.35;;;4.88;;
21168;SDS011;10742;51.816;8.662;2023-06-24T07:30:16;9.85;;;5.22;;
21168;SDS011;10742;51.816;8.662;2023-06-24T07:33:18;9.25;;;4.88;;
21168;SDS011;10742;51.816;8.662;2023-06-24T07:36:21;13.65;;;5.10;;
21168;SDS011;10742;51.816;8.662;2023-06-24T07:39:23;8.93;;;4.97;;
21168;SDS011;10742;51.816;8.662;2023-06-24T07:42:25;8.38;;;4.78;;
21168;SDS011;10742;51.816;8.662;2023-06-24T07:45:28;8.00;;;4.85;;
21168;SDS011;10742;51.816;8.662;2023-06-24T07:48:30;8.80;;;4.70;;
21168;SDS011;10742;51.816;8.662;2023-06-24T07:51:32;9.90;;;4.60;;
21168;SDS011;10742;51.816;8.662;2023-06-24T07:54:36;10.20;;;4.82;;
21168;SDS011;10742;51.816;8.662;2023-06-24T07:57:39;8.93;;;4.65;;
21168;SDS011;10742;51.816;8.662;2023-06-24T08:00:41;8.50;;;4.65;;
21168;SDS011;10742;51.816;8.662;2023-06-24T08:03:44;12.68;;;5.13;;
21168;SDS011;10742;51.816;8.662;2023-06-24T08:06:46;8.70;;;4.47;;
21168;SDS011;10742;51.816;8.662;2023-06-24T08:09:49;10.05;;;5.05;;
21168;SDS011;10742;51.816;8.662;2023-06-24T08:12:51;12.93;;;5.22;;
21168;SDS011;10742;51.816;8.662;2023-06-24T08:15:53;10.85;;;4.93;;
21168;SDS011;10742;51.816;8.662;2023-06-24T08:18:55;6.82;;;4.40;;
21168;SDS011;10742;51.816;8.662;2023-06-24T08:21:58;9.82;;;5.00;;
21168;SDS011;10742;51.816;8.662;2023-06-24T08:25:00;8.23;;;4.13;;
21168;SDS011;10742;51.816;8.662;2023-06-24T08:28:02;9.45;;;4.07;;
21168;SDS011;10742;51.816;8.662;2023-06-24T08:31:05;9.80;;;4.53;;
21168;SDS011;10742;51.816;8.662;2023-06-24T08:34:07;7.60;;;4.40;;
21168;SDS011;10742;51.816;8.662;2023-06-24T08:37:09;6.30;;;4.10;;
21168;SDS011;10742;51.816;8.662;2023-06-24T08:40:12;7.93;;;4.00;;
21168;SDS011;10742;51.816;8.662;2023-06-24T08:43:14;9.85;;;4.07;;
21168;SDS011;10742;51.816;8.662;2023-06-24T08:46:17;9.55;;;4.10;;
21168;SDS011;10742;51.816;8.662;2023-06-24T08:52:30;6.22;;;3.53;;
21168;SDS011;10742;51.816;8.662;2023-06-24T08:55:43;6.30;;;3.55;;
21168;SDS011;10742;51.816;8.662;2023-06-24T08:58:47;8.10;;;3.78;;
21168;SDS011;10742;51.816;8.662;2023-06-24T09:01:49;7.50;;;3.45;;
21168;SDS011;10742;51.816;8.662;2023-06-24T09:04:52;10.10;;;3.47;;
21168;SDS011;10742;51.816;8.662;2023-06-24T09:07:54;5.22;;;3.47;;
21168;SDS011;10742;51.816;8.662;2023-06-24T09:10:57;9.85;;;3.58;;
21168;SDS011;10742;51.816;8.662;2023-06-24T09:13:59;5.45;;;3.30;;
21168;SDS011;10742;51.816;8.662;2023-06-24T09:17:02;7.93;;;3.60;;
21168;SDS011;10742;51.816;8.662;2023-06-24T09:20:07;6.75;;;3.55;;
21168;SDS011;10742;51.816;8.662;2023-06-24T09:23:10;7.20;;;3.70;;
21168;SDS011;10742;51.816;8.662;2023-06-24T09:26:13;6.55;;;3.55;;
21168;SDS011;10742;51.816;8.662;2023-06-24T09:29:15;8.07;;;3.80;;
21168;SDS011;10742;51.816;8.662;2023-06-24T09:32:17;5.72;;;3.50;;
21168;SDS011;10742;51.816;8.662;2023-06-24T09:35:24;6.07;;;3.50;;
21168;SDS011;10742;51.816;8.662;2023-06-24T09:38:36;5.45;;;3.15;;
21168;SDS011;10742;51.816;8.662;2023-06-24T09:41:40;5.20;;;3.15;;
21168;SDS011;10742;51.816;8.662;2023-06-24T09:44:45;6.32;;;3.78;;
21168;SDS011;10742;51.816;8.662;2023-06-24T09:47:57;7.93;;;3.58;;
21168;SDS011;10742;51.816;8.662;2023-06-24T09:51:00;9.05;;;3.72;;
21168;SDS011;10742;51.816;8.662;2023-06-24T09:54:08;5.13;;;3.13;;
21168;SDS011;10742;51.816;8.662;2023-06-24T09:57:12;5.82;;;3.28;;
21168;SDS011;10742;51.816;8.662;2023-06-24T10:00:17;5.82;;;3.28;;
21168;SDS011;10742;51.816;8.662;2023-06-24T10:03:21;7.78;;;3.90;;
21168;SDS011;10742;51.816;8.662;2023-06-24T10:06:24;6.53;;;3.67;;
21168;SDS011;10742;51.816;8.662;2023-06-24T10:09:27;8.52;;;4.03;;
21168;SDS011;10742;51.816;8.662;2023-06-24T10:12:30;9.98;;;4.13;;
21168;SDS011;10742;51.816;8.662;2023-06-24T10:15:33;7.32;;;4.15;;
21168;SDS011;10742;51.816;8.662;2023-06-24T10:18:37;4.55;;;3.45;;
21168;SDS011;10742;51.816;8.662;2023-06-24T10:21:53;7.65;;;3.47;;
21168;SDS011;10742;51.816;8.662;2023-06-24T10:24:59;10.57;;;4.22;;
21168;SDS011;10742;51.816;8.662;2023-06-24T10:28:02;8.25;;;4.28;;
21168;SDS011;10742;51.816;8.662;2023-06-24T10:31:05;11.65;;;4.88;;
21168;SDS011;10742;51.816;8.662;2023-06-24T10:37:35;8.13;;;4.40;;
21168;SDS011;10742;51.816;8.662;2023-06-24T10:40:38;11.20;;;4.22;;
21168;SDS011;10742;51.816;8.662;2023-06-24T10:43:43;11.00;;;4.80;;
21168;SDS011;10742;51.816;8.662;2023-06-24T10:46:53;13.57;;;4.55;;
21168;SDS011;10742;51.816;8.662;2023-06-24T10:49:56;5.97;;;3.85;;
21168;SDS011;10742;51.816;8.662;2023-06-24T10:52:58;10.93;;;4.32;;
21168;SDS011;10742;51.816;8.662;2023-06-24T10:56:03;8.75;;;4.18;;
21168;SDS011;10742;51.816;8.662;2023-06-24T10:59:05;9.82;;;4.05;;
21168;SDS011;10742;51.816;8.662;2023-06-24T11:02:08;5.35;;;3.75;;
21168;SDS011;10742;51.816;8.662;2023-06-24T11:05:11;5.80;;;3.65;;
21168;SDS011;10742;51.816;8.662;2023-06-24T11:08:14;6.40;;;3.80;;
21168;SDS011;10742;51.816;8.662;2023-06-24T11:11:19;7.38;;;3.70;;
21168;SDS011;10742;51.816;8.662;2023-06-24T11:14:23;8.43;;;3.85;;
21168;SDS011;10742;51.816;8.662;2023-06-24T11:17:26;8.88;;;3.95;;
21168;SDS011;10742;51.816;8.662;2023-06-24T11:20:28;7.47;;;4.00;;
21168;SDS011;10742;51.816;8.662;2023-06-24T11:23:31;5.75;;;3.65;;
21168;SDS011;10742;51.816;8.662;2023-06-24T11:26:34;9.48;;;3.60;;
21168;SDS011;10742;51.816;8.662;2023-06-24T11:29:37;7.45;;;3.53;;
21168;SDS011;10742;51.816;8.662;2023-06-24T11:32:40;8.82;;;4.18;;
21168;SDS011;10742;51.816;8.662;2023-06-24T11:35:43;6.22;;;3.88;;
21168;SDS011;10742;51.816;8.662;2023-06-24T11:38:46;6.47;;;3.70;;
21168;SDS011;10742;51.816;8.662;2023-06-24T11:41:49;6.50;;;3.42;;
21168;SDS011;10742;51.816;8.662;2023-06-24T11:44:51;8.07;;;3.70;;
21168;SDS011;10742;51.816;8.662;2023-06-24T11:48:00;7.70;;;3.78;;
21168;SDS011;10742;51.816;8.662;2023-06-24T11:51:12;6.28;;;4.00;;
21168;SDS011;10742;51.816;8.662;2023-06-24T11:54:16;5.38;;;3.42;;
21168;SDS011;10742;51.816;8.662;2023-06-24T11:57:19;5.28;;;3.60;;
21168;SDS011;10742;51.816;8.662;2023-06-24T12:00:26;5.55;;;3.60;;
21168;SDS011;10742;51.816;8.662;2023-06-24T12:03:37;8.55;;;3.40;;
21168;SDS011;10742;51.816;8.662;2023-06-24T12:06:40;7.55;;;3.60;;
21168;SDS011;10742;51.816;8.662;2023-06-24T12:09:43;8.98;;;3.83;;
21168;SDS011;10742;51.816;8.662;2023-06-24T12:12:45;8.30;;;3.80;;
21168;SDS011;10742;51.816;8.662;2023-06-24T12:15:48;10.27;;;4.18;;
21168;SDS011;10742;51.816;8.662;2023-06-24T12:18:50;7.47;;;3.50;;
21168;SDS011;10742;51.816;8.662;2023-06-24T12:21:53;7.18;;;3.47;;
21168;SDS011;10742;51.816;8.662;2023-06-24T12:24:55;8.55;;;3.45;;
21168;SDS011;10742;51.816;8.662;2023-06-24T12:27:57;5.75;;;3.10;;
21168;SDS011;10742;51.816;8.662;2023-06-24T12:31:02;8.52;;;3.72;;
21168;SDS011;10742;51.816;8.662;2023-06-24T12:34:05;7.28;;;3.50;;
21168;SDS011;10742;51.816;8.662;2023-06-24T12:37:07;7.20;;;3.53;;
21168;SDS011;10742;51.816;8.662;2023-06-24T12:40:10;6.15;;;3.55;;
21168;SDS011;10742;51.816;8.662;2023-06-24T12:43:12;6.18;;;3.58;;
21168;SDS011;10742;51.816;8.662;2023-06-24T12:46:14;6.53;;;3.42;;
21168;SDS011;10742;51.816;8.662;2023-06-24T12:49:17;5.50;;;3.60;;
21168;SDS011;10742;51.816;8.662;2023-06-24T12:52:19;5.80;;;3.47;;
21168;SDS011;10742;51.816;8.662;2023-06-24T12:55:22;8.73;;;3.95;;
21168;SDS011;10742;51.816;8.662;2023-06-24T12:58:24;6.93;;;4.03;;
21168;SDS011;10742;51.816;8.662;2023-06-24T13:01:28;8.15;;;3.53;;
21168;SDS011;10742;51.816;8.662;2023-06-24T13:04:30;5.50;;;3.47;;
21168;SDS011;10742;51.816;8.662;2023-06-24T13:07:32;6.75;;;3.70;;
21168;SDS011;10742;51.816;8.662;2023-06-24T13:10:35;4.57;;;3.30;;
21168;SDS011;10742;51.816;8.662;2023-06-24T13:13:37;8.73;;;3.88;;
21168;SDS011;10742;51.816;8.662;2023-06-24T13:16:39;7.07;;;3.60;;
21168;SDS011;10742;51.816;8.662;2023-06-24T13:19:42;7.30;;;3.45;;
21168;SDS011;10742;51.816;8.662;2023-06-24T13:22:44;10.63;;;3.20;;
21168;SDS011;10742;51.816;8.662;2023-06-24T13:25:46;6.10;;;3.38;;
21168;SDS011;10742;51.816;8.662;2023-06-24T13:28:49;7.80;;;3.55;;
21168;SDS011;10742;51.816;8.662;2023-06-24T13:31:51;7.40;;;3.70;;
21168;SDS011;10742;51.816;8.662;2023-06-24T13:34:54;8.27;;;3.72;;
21168;SDS011;10742;51.816;8.662;2023-06-24T13:37:56;7.80;;;3.78;;
21168;SDS011;10742;51.816;8.662;2023-06-24T13:41:00;5.07;;;3.50;;
21168;SDS011;10742;51.816;8.662;2023-06-24T13:44:02;5.93;;;3.67;;
21168;SDS011;10742;51.816;8.662;2023-06-24T13:47:05;6.55;;;3.63;;
21168;SDS011;10742;51.816;8.662;2023-06-24T13:50:08;6.70;;;3.45;;
21168;SDS011;10742;51.816;8.662;2023-06-24T13:53:11;4.80;;;3.60;;
21168;SDS011;10742;51.816;8.662;2023-06-24T13:56:13;9.25;;;3.67;;
21168;SDS011;10742;51.816;8.662;2023-06-24T13:59:15;6.35;;;3.80;;
21168;SDS011;10742;51.816;8.662;2023-06-24T14:02:18;7.00;;;3.75;;
21168;SDS011;10742;51.816;8.662;2023-06-24T14:05:20;6.22;;;3.80;;
21168;SDS011;10742;51.816;8.662;2023-06-24T14:08:23;9.43;;;4.03;;
21168;SDS011;10742;51.816;8.662;2023-06-24T14:11:25;7.88;;;4.57;;
21168;SDS011;10742;51.816;8.662;2023-06-24T14:14:28;7.32;;;4.20;;
21168;SDS011;10742;51.816;8.662;2023-06-24T14:17:30;11.20;;;4.30;;
21168;SDS011;10742;51.816;8.662;2023-06-24T14:20:32;7.05;;;3.65;;
21168;SDS011;10742;51.816;8.662;2023-06-24T14:23:35;7.45;;;3.67;;
21168;SDS011;10742;51.816;8.662;2023-06-24T14:26:37;7.93;;;4.20;;
21168;SDS011;10742;51.816;8.662;2023-06-24T14:29:39;8.68;;;4.18;;
21168;SDS011;10742;51.816;8.662;2023-06-24T14:32:42;5.43;;;3.80;;
21168;SDS011;10742;51.816;8.662;2023-06-24T14:35:44;6.68;;;3.80;;
21168;SDS011;10742;51.816;8.662;2023-06-24T14:38:46;6.60;;;3.90;;
21168;SDS011;10742;51.816;8.662;2023-06-24T14:41:49;7.00;;;4.00;;
21168;SDS011;10742;51.816;8.662;2023-06-24T14:44:51;7.07;;;4.10;;
21168;SDS011;10742;51.816;8.662;2023-06-24T14:47:54;6.90;;;4.10;;
21168;SDS011;10742;51.816;8.662;2023-06-24T14:50:56;10.05;;;4.47;;
21168;SDS011;10742;51.816;8.662;2023-06-24T14:53:58;8.35;;;4.30;;
21168;SDS011;10742;51.816;8.662;2023-06-24T14:57:01;10.70;;;4.30;;
21168;SDS011;10742;51.816;8.662;2023-06-24T15:00:03;9.77;;;4.20;;
21168;SDS011;10742;51.816;8.662;2023-06-24T15:03:07;8.05;;;4.00;;
21168;SDS011;10742;51.816;8.662;2023-06-24T15:06:09;9.43;;;4.28;;
21168;SDS011;10742;51.816;8.662;2023-06-24T15:09:11;6.65;;;4.00;;
21168;SDS011;10742;51.816;8.662;2023-06-24T15:12:14;9.45;;;4.57;;
21168;SDS011;10742;51.816;8.662;2023-06-24T15:15:16;6.40;;;4.18;;
21168;SDS011;10742;51.816;8.662;2023-06-24T15:18:19;6.72;;;4.25;;
21168;SDS011;10742;51.816;8.662;2023-06-24T15:21:21;6.90;;;4.15;;
21168;SDS011;10742;51.816;8.662;2023-06-24T15:24:36;6.32;;;4.03;;
21168;SDS011;10742;51.816;8.662;2023-06-24T15:27:39;8.82;;;4.30;;
21168;SDS011;10742;51.816;8.662;2023-06-24T15:30:41;6.72;;;4.15;;
21168;SDS011;10742;51.816;8.662;2023-06-24T15:33:43;9.20;;;4.57;;
21168;SDS011;10742;51.816;8.662;2023-06-24T15:36:46;9.68;;;4.50;;
21168;SDS011;10742;51.816;8.662;2023-06-24T15:39:48;9.80;;;4.35;;
21168;SDS011;10742;51.816;8.662;2023-06-24T15:42:51;8.88;;;4.40;;
21168;SDS011;10742;51.816;8.662;2023-06-24T15:45:53;10.13;;;4.45;;
21168;SDS011;10742;51.816;8.662;2023-06-24T15:48:55;8.32;;;4.30;;
21168;SDS011;10742;51.816;8.662;2023-06-24T15:51:58;8.15;;;4.32;;
21168;SDS011;10742;51.816;8.662;2023-06-24T15:55:00;8.05;;;4.22;;
21168;SDS011;10742;51.816;8.662;2023-06-24T15:58:02;7.63;;;4.20;;
21168;SDS011;10742;51.816;8.662;2023-06-24T16:01:06;6.38;;;4.00;;
21168;SDS011;10742;51.816;8.662;2023-06-24T16:04:08;7.78;;;4.20;;
21168;SDS011;10742;51.816;8.662;2023-06-24T16:07:10;8.27;;;4.80;;
21168;SDS011;10742;51.816;8.662;2023-06-24T16:10:32;9.10;;;4.55;;
21168;SDS011;10742;51.816;8.662;2023-06-24T16:13:53;8.80;;;4.20;;
21168;SDS011;10742;51.816;8.662;2023-06-24T16:16:55;9.60;;;4.50;;
21168;SDS011;10742;51.816;8.662;2023-06-24T16:19:58;10.32;;;4.60;;
21168;SDS011;10742;51.816;8.662;2023-06-24T16:23:01;6.93;;;4.50;;
21168;SDS011;10742;51.816;8.662;2023-06-24T16:26:05;7.15;;;4.50;;
21168;SDS011;10742;51.816;8.662;2023-06-24T16:29:07;7.05;;;4.13;;
21168;SDS011;10742;51.816;8.662;2023-06-24T16:32:09;8.20;;;4.30;;
21168;SDS011;10742;51.816;8.662;2023-06-24T16:35:12;9.60;;;5.30;;
21168;SDS011;10742;51.816;8.662;2023-06-24T16:38:14;7.00;;;4.45;;
21168;SDS011;10742;51.816;8.662;2023-06-24T16:41:17;6.68;;;4.50;;
21168;SDS011;10742;51.816;8.662;2023-06-24T16:44:19;36.40;;;20.25;;
21168;SDS011;10742;51.816;8.662;2023-06-24T16:47:22;25.75;;;12.63;;
21168;SDS011;10742;51.816;8.662;2023-06-24T16:50:27;13.95;;;6.85;;
21168;SDS011;10742;51.816;8.662;2023-06-24T16:53:29;8.05;;;5.13;;
21168;SDS011;10742;51.816;8.662;2023-06-24T16:56:31;9.60;;;4.90;;
21168;SDS011;10742;51.816;8.662;2023-06-24T16:59:34;8.98;;;4.90;;
21168;SDS011;10742;51.816;8.662;2023-06-24T17:02:36;8.90;;;4.90;;
21168;SDS011;10742;51.816;8.662;2023-06-24T17:05:38;10.18;;;4.68;;
21168;SDS011;10742;51.816;8.662;2023-06-24T17:08:41;9.05;;;5.45;;
21168;SDS011;10742;51.816;8.662;2023-06-24T17:11:43;13.82;;;6.18;;
21168;SDS011;10742;51.816;8.662;2023-06-24T17:14:46;7.50;;;4.88;;
21168;SDS011;10742;51.816;8.662;2023-06-24T17:17:48;8.65;;;5.00;;
21168;SDS011;10742;51.816;8.662;2023-06-24T17:20:51;8.52;;;5.07;;
21168;SDS011;10742;51.816;8.662;2023-06-24T17:23:53;9.20;;;5.50;;
21168;SDS011;10742;51.816;8.662;2023-06-24T17:26:55;9.23;;;4.90;;
21168;SDS011;10742;51.816;8.662;2023-06-24T17:29:58;10.85;;;5.20;;
21168;SDS011;10742;51.816;8.662;2023-06-24T17:33:01;9.82;;;5.32;;
21168;SDS011;10742;51.816;8.662;2023-06-24T17:36:03;8.18;;;4.95;;
21168;SDS011;10742;51.816;8.662;2023-06-24T17:39:06;8.20;;;4.95;;
21168;SDS011;10742;51.816;8.662;2023-06-24T17:42:08;11.23;;;5.03;;
21168;SDS011;10742;51.816;8.662;2023-06-24T17:45:10;7.65;;;4.60;;
21168;SDS011;10742;51.816;8.662;2023-06-24T17:48:13;9.45;;;5.00;;
21168;SDS011;10742;51.816;8.662;2023-06-24T17:51:15;8.13;;;4.80;;
21168;SDS011;10742;51.816;8.662;2023-06-24T17:54:17;8.25;;;4.40;;
21168;SDS011;10742;51.816;8.662;2023-06-24T17:57:20;9.25;;;4.88;;
21168;SDS011;10742;51.816;8.662;2023-06-24T18:00:22;7.80;;;4.43;;
21168;SDS011;10742;51.816;8.662;2023-06-24T18:03:24;13.52;;;5.53;;
21168;SDS011;10742;51.816;8.662;2023-06-24T18:06:27;12.95;;;4.78;;
21168;SDS011;10742;51.816;8.662;2023-06-24T18:09:29;7.53;;;4.53;;